createdAt,value
2019-03-20T00:01:08.031Z,98863.63
2019-03-20T00:03:35.123Z,98864.44
2019-03-20T00:06:02.048Z,98871.19
2019-03-20T00:08:29.001Z,98869.38
2019-03-20T00:10:55.945Z,98866.75
2019-03-20T00:13:22.871Z,98870.17
2019-03-20T00:15:49.814Z,98869.67
2019-03-20T00:18:16.894Z,98871.48
2019-03-20T00:20:43.831Z,98878.03
2019-03-20T00:23:10.766Z,98878.03
2019-03-20T00:25:37.732Z,98731.70
2019-03-20T00:28:04.683Z,98881.45
2019-03-20T00:30:31.633Z,98878.84
2019-03-20T00:32:58.870Z,98870.17
2019-03-20T00:35:25.818Z,98876.72
2019-03-20T00:37:52.750Z,98877.36
2019-03-20T00:40:19.861Z,98881.29
2019-03-20T00:42:46.735Z,98877.53
2019-03-20T00:45:13.653Z,98877.86
2019-03-20T00:47:40.616Z,98878.84
2019-03-20T00:50:07.564Z,98874.74
2019-03-20T00:52:34.512Z,98876.55
2019-03-20T00:55:01.629Z,98876.05
2019-03-20T00:57:28.516Z,98872.63
2019-03-20T00:59:55.461Z,98870.31
2019-03-20T01:02:22.391Z,98870.01
2019-03-20T01:04:49.341Z,98869.50
2019-03-20T01:07:16.376Z,98870.11
2019-03-20T01:09:43.402Z,98861.14
2019-03-20T01:12:10.261Z,98859.83
2019-03-20T01:14:37.241Z,98863.26
2019-03-20T01:17:04.288Z,98857.72
2019-03-20T01:19:31.243Z,98860.64
2019-03-20T01:21:58.186Z,98861.14
2019-03-20T01:24:25.108Z,98862.75
2019-03-20T01:26:52.038Z,98859.33
2019-03-20T01:29:19.067Z,98861.95
2019-03-20T01:31:46.095Z,98862.25
2019-03-20T01:34:13.119Z,98866.17
2019-03-20T01:36:40.048Z,98862.25
2019-03-20T01:39:07.059Z,98868.50
2019-03-20T01:41:37.881Z,98859.33
2019-03-20T01:44:02.560Z,98856.70
2019-03-20T01:46:29.521Z,98855.41
2019-03-20T01:48:56.446Z,98852.28
2019-03-20T01:51:23.441Z,98853.39
2019-03-20T01:53:50.466Z,98854.39
2019-03-20T01:56:17.465Z,98857.81
2019-03-20T01:58:44.667Z,98858.32
2019-03-20T02:01:11.563Z,98853.08
2019-03-20T02:03:40.816Z,98855.70
2019-03-20T02:06:07.186Z,98858.32
2019-03-20T02:08:34.156Z,98863.05
2019-03-20T02:11:01.202Z,98862.25
2019-03-20T02:13:28.287Z,98859.13
2019-03-20T02:15:55.188Z,98859.63
2019-03-20T02:18:22.144Z,98860.94
2019-03-20T02:20:49.102Z,98863.05
2019-03-20T02:23:16.056Z,98856.51
2019-03-20T02:25:43.017Z,98854.39
2019-03-20T02:28:09.977Z,98851.77
2019-03-20T02:30:37.014Z,98859.63
2019-03-20T02:33:04.017Z,98856.00
2019-03-20T02:35:31.006Z,98853.89
2019-03-20T02:37:57.925Z,98855.20
2019-03-20T02:40:24.990Z,98863.86
2019-03-20T02:42:51.925Z,98862.55
2019-03-20T02:45:18.895Z,98859.94
2019-03-20T02:47:45.833Z,98863.05
2019-03-20T02:50:12.795Z,98868.30
2019-03-20T02:52:39.869Z,98861.75
2019-03-20T02:55:06.838Z,98860.44
2019-03-20T02:57:33.933Z,98859.94
2019-03-20T03:00:01.032Z,98854.69
2019-03-20T03:02:28.018Z,98856.81
2019-03-20T03:04:54.957Z,98859.43
2019-03-20T03:07:21.916Z,98863.36
2019-03-20T03:09:48.893Z,98865.17
2019-03-20T03:12:15.821Z,98860.94
2019-03-20T03:14:42.755Z,98860.44
2019-03-20T03:17:09.676Z,98860.94
2019-03-20T03:19:36.640Z,98865.17
2019-03-20T03:22:03.614Z,98871.22
2019-03-20T03:24:30.548Z,98869.09
2019-03-20T03:26:57.512Z,98871.22
2019-03-20T03:29:24.626Z,98874.84
2019-03-20T03:31:51.552Z,98872.22
2019-03-20T03:34:18.438Z,98880.08
2019-03-20T03:36:45.376Z,98880.88
2019-03-20T03:39:12.301Z,98867.48
2019-03-20T03:41:39.297Z,98882.70
2019-03-20T03:44:06.288Z,98880.88
2019-03-20T03:46:33.304Z,98882.70
2019-03-20T03:49:00.213Z,98878.27
2019-03-20T03:51:27.308Z,98883.00
2019-03-20T03:53:54.226Z,98885.31
2019-03-20T03:56:21.179Z,98886.63
2019-03-20T03:58:48.096Z,98885.31
2019-03-20T04:01:15.038Z,98892.67
2019-03-20T04:03:42.018Z,98896.59
2019-03-20T04:06:08.948Z,98897.91
2019-03-20T04:08:35.902Z,98901.53
2019-03-20T04:11:02.893Z,98907.27
2019-03-20T04:13:29.770Z,98909.39
2019-03-20T04:15:56.724Z,98911.51
2019-03-20T04:18:23.773Z,98911.51
2019-03-20T04:20:50.730Z,98916.75
2019-03-20T04:23:17.670Z,98917.55
2019-03-20T04:25:44.609Z,98916.75
2019-03-20T04:28:11.544Z,98921.48
2019-03-20T04:30:38.514Z,98913.12
2019-03-20T04:33:05.708Z,98922.79
2019-03-20T04:35:32.703Z,98923.59
2019-03-20T04:37:59.906Z,98922.28
2019-03-20T04:40:26.796Z,98920.97
2019-03-20T04:42:53.798Z,98918.05
2019-03-20T04:45:20.893Z,98923.30
2019-03-20T04:47:47.825Z,98923.30
2019-03-20T04:50:14.877Z,98923.80
2019-03-20T04:52:42.017Z,98930.34
2019-03-20T04:55:09.040Z,98939.01
2019-03-20T04:57:36.009Z,98931.15
2019-03-20T05:00:02.932Z,98930.34
2019-03-20T05:02:29.864Z,98938.50
2019-03-20T05:04:56.829Z,98934.77
2019-03-20T05:07:23.771Z,98936.59
2019-03-20T05:09:50.749Z,98934.27
2019-03-20T05:12:17.766Z,98931.66
2019-03-20T05:14:44.720Z,98934.27
2019-03-20T05:17:11.653Z,98936.08
2019-03-20T05:19:38.629Z,98960.46
2019-03-20T05:22:05.541Z,98944.24
2019-03-20T05:24:32.453Z,98943.44
2019-03-20T05:26:59.389Z,98952.61
2019-03-20T05:29:26.306Z,98955.73
2019-03-20T05:31:53.222Z,98952.61
2019-03-20T05:34:20.185Z,98960.97
2019-03-20T05:36:47.211Z,98964.09
2019-03-20T05:39:15.872Z,98964.89
2019-03-20T05:41:42.648Z,98964.89
2019-03-20T05:44:09.631Z,98967.52
2019-03-20T05:46:36.575Z,98971.95
2019-03-20T05:49:03.577Z,98975.88
2019-03-20T05:51:30.434Z,98973.25
2019-03-20T05:53:57.385Z,98976.88
2019-03-20T05:56:24.313Z,98982.42
2019-03-20T05:58:51.247Z,98993.70
2019-03-20T06:01:18.177Z,98998.94
2019-03-20T06:03:45.140Z,98998.64
2019-03-20T06:06:12.368Z,98998.14
2019-03-20T06:08:39.230Z,98993.91
2019-03-20T06:11:06.191Z,99003.37
2019-03-20T06:13:33.153Z,99008.61
2019-03-20T06:16:00.157Z,99011.23
2019-03-20T06:18:27.083Z,99013.55
2019-03-20T06:20:54.077Z,99012.54
2019-03-20T06:23:21.059Z,99013.55
2019-03-20T06:25:48.073Z,99016.16
2019-03-20T06:28:15.149Z,99012.73
2019-03-20T06:30:42.188Z,99017.98
2019-03-20T06:33:09.119Z,99014.52
2019-03-20T06:35:36.031Z,99018.78
2019-03-20T06:38:02.958Z,99025.83
2019-03-20T06:40:29.899Z,99027.45
2019-03-20T06:42:56.803Z,99028.45
2019-03-20T06:45:23.891Z,99044.16
2019-03-20T06:47:50.799Z,99035.47
2019-03-20T06:50:17.715Z,99033.36
2019-03-20T06:52:44.642Z,99047.59
2019-03-20T06:55:11.569Z,99046.78
2019-03-20T06:57:38.520Z,99044.16
2019-03-20T07:00:05.625Z,99045.47
2019-03-20T07:02:32.573Z,99047.77
2019-03-20T07:04:59.499Z,99052.83
2019-03-20T07:07:26.442Z,99049.88
2019-03-20T07:09:53.389Z,99050.72
2019-03-20T07:12:20.303Z,99057.27
2019-03-20T07:14:47.291Z,99056.06
2019-03-20T07:17:14.241Z,99060.30
2019-03-20T07:19:41.181Z,99057.28
2019-03-20T07:22:08.103Z,99059.70
2019-03-20T07:24:35.021Z,99064.83
2019-03-20T07:27:02.004Z,99060.30
2019-03-20T07:29:28.936Z,99066.23
2019-03-20T07:31:55.892Z,99065.13
2019-03-20T07:34:22.879Z,99068.84
2019-03-20T07:36:49.852Z,99065.42
2019-03-20T07:39:16.778Z,99065.13
2019-03-20T07:41:43.758Z,99069.52
2019-03-20T07:44:10.680Z,99079.02
2019-03-20T07:46:37.598Z,99072.47
2019-03-20T07:49:04.622Z,99074.09
2019-03-20T07:51:31.516Z,99075.76
2019-03-20T07:53:58.427Z,99080.83
2019-03-20T07:56:25.342Z,99079.94
2019-03-20T07:58:52.329Z,99075.20
2019-03-20T08:01:20.353Z,99077.02
2019-03-20T08:03:47.382Z,99076.91
2019-03-20T08:06:14.283Z,99078.52
2019-03-20T08:08:41.183Z,99080.64
2019-03-20T08:11:08.105Z,99078.52
2019-03-20T08:13:35.013Z,99077.71
2019-03-20T08:16:03.897Z,99077.71
2019-03-20T08:18:30.484Z,99078.52
2019-03-20T08:20:57.400Z,99082.45
2019-03-20T08:23:24.336Z,99079.02
2019-03-20T08:25:51.247Z,99090.80
2019-03-20T08:28:18.159Z,99085.56
2019-03-20T08:30:45.068Z,99088.99
2019-03-20T08:33:11.976Z,99092.11
2019-03-20T08:35:38.917Z,99090.47
2019-03-20T08:38:05.825Z,99096.55
2019-03-20T08:40:32.908Z,99100.28
2019-03-20T08:43:12.229Z,99101.59
2019-03-20T08:45:39.248Z,99101.59
2019-03-20T08:48:06.374Z,99099.47
2019-03-20T08:50:33.272Z,99103.91
2019-03-20T08:53:00.168Z,99105.52
2019-03-20T08:55:27.132Z,99102.09
2019-03-20T09:00:38.921Z,99101.28
2019-03-20T09:03:05.812Z,99102.59
2019-03-20T09:05:32.744Z,99103.20
2019-03-20T09:07:59.658Z,99105.02
2019-03-20T09:10:26.572Z,99106.83
2019-03-20T09:12:53.558Z,99105.02
2019-03-20T09:15:20.688Z,99100.28
2019-03-20T09:17:47.656Z,99113.18
2019-03-20T09:20:14.618Z,99102.20
2019-03-20T09:22:41.497Z,99106.12
2019-03-20T09:25:08.433Z,99112.98
2019-03-20T09:27:35.340Z,99107.24
2019-03-20T09:30:02.254Z,99104.13
2019-03-20T09:32:29.164Z,99103.31
2019-03-20T09:34:56.077Z,99101.00
2019-03-20T09:37:23.006Z,99101.00
2019-03-20T09:39:49.912Z,99101.30
2019-03-20T09:42:16.860Z,99108.66
2019-03-20T09:44:43.756Z,99114.91
2019-03-20T09:47:10.664Z,99112.59
2019-03-20T09:49:37.635Z,99102.92
2019-03-20T09:52:04.565Z,99103.56
2019-03-20T09:54:31.476Z,99110.92
2019-03-20T09:56:58.412Z,99106.48
2019-03-20T09:59:25.328Z,99104.88
2019-03-20T10:01:52.261Z,99109.91
2019-03-20T10:04:19.172Z,99107.94
2019-03-20T10:06:46.081Z,99113.98
2019-03-20T10:09:12.994Z,99111.47
2019-03-20T10:11:40.125Z,99112.78
2019-03-20T10:14:07.056Z,99110.47
2019-03-20T10:16:33.998Z,99115.50
2019-03-20T10:19:01.370Z,99110.07
2019-03-20T10:21:28.368Z,99113.39
2019-03-20T10:23:55.276Z,99119.85
2019-03-20T10:26:22.256Z,99113.30
2019-03-20T10:28:49.428Z,99110.48
2019-03-20T10:31:16.501Z,99118.34
2019-03-20T10:33:43.404Z,99117.67
2019-03-20T10:36:10.503Z,99120.16
2019-03-20T10:38:37.496Z,99125.03
2019-03-20T10:41:04.461Z,99115.47
2019-03-20T10:43:31.617Z,99123.33
2019-03-20T10:45:58.800Z,99121.82
2019-03-20T10:48:25.850Z,99126.75
2019-03-20T10:50:52.890Z,99127.06
2019-03-20T10:53:19.919Z,99130.98
2019-03-20T10:55:47.094Z,99127.87
2019-03-20T10:58:14.136Z,99126.66
2019-03-20T11:00:41.191Z,99129.08
2019-03-20T11:03:08.233Z,99130.50
2019-03-20T11:05:35.280Z,99139.27
2019-03-20T11:08:02.332Z,99134.83
2019-03-20T11:10:29.389Z,99135.53
2019-03-20T11:12:56.550Z,99138.15
2019-03-20T11:15:23.507Z,99130.98
2019-03-20T11:17:50.518Z,99128.56
2019-03-20T11:20:17.519Z,99128.77
2019-03-20T11:22:44.615Z,99131.89
2019-03-20T11:25:11.627Z,99126.84
2019-03-20T11:27:38.633Z,99125.20
2019-03-20T11:30:06.168Z,99121.97
2019-03-20T11:32:33.384Z,99123.08
2019-03-20T11:35:00.749Z,99119.85
2019-03-20T11:37:28.015Z,99118.54
2019-03-20T11:39:54.997Z,99117.23
2019-03-20T11:42:22.233Z,99117.73
2019-03-20T11:44:49.209Z,99111.19
2019-03-20T11:47:16.498Z,99131.64
2019-03-20T11:49:43.566Z,99107.75
2019-03-20T11:52:11.240Z,99106.95
2019-03-20T11:54:38.509Z,99106.45
2019-03-20T11:57:05.758Z,99104.13
2019-03-20T11:59:32.850Z,99095.66
2019-03-20T12:01:59.909Z,99101.41
2019-03-20T12:04:26.905Z,99093.55
2019-03-20T12:06:53.919Z,99089.41
2019-03-20T12:09:21.087Z,99089.61
2019-03-20T12:11:48.103Z,99087.00
2019-03-20T12:14:15.096Z,99087.00
2019-03-20T12:16:42.347Z,99086.49
2019-03-20T12:19:09.643Z,99087.80
2019-03-20T12:21:36.680Z,99082.56
2019-03-20T12:24:03.688Z,99077.02
2019-03-20T12:26:30.837Z,99069.16
2019-03-20T12:28:59.211Z,99068.85
2019-03-20T12:31:26.484Z,99074.09
2019-03-20T12:33:53.589Z,99074.90
2019-03-20T12:36:20.659Z,99076.21
2019-03-20T12:38:47.647Z,99074.09
2019-03-20T12:41:14.661Z,99062.80
2019-03-20T12:43:41.664Z,99059.68
2019-03-20T12:46:08.675Z,99057.56
2019-03-20T12:48:35.696Z,99058.88
2019-03-20T12:51:02.846Z,99051.52
2019-03-20T12:53:29.808Z,99053.13
2019-03-20T12:55:56.820Z,99049.20
2019-03-20T12:58:23.821Z,99051.83
2019-03-20T13:00:50.877Z,99049.20
2019-03-20T13:03:19.208Z,99049.51
2019-03-20T13:05:46.214Z,99044.47
2019-03-20T13:08:13.414Z,99047.09
2019-03-20T13:10:40.501Z,99046.58
2019-03-20T13:13:07.822Z,99049.20
2019-03-20T13:15:34.944Z,99045.78
2019-03-20T13:18:02.319Z,98917.40
2019-03-20T13:20:29.322Z,99034.99
2019-03-20T13:22:56.413Z,99036.41
2019-03-20T13:25:23.693Z,99030.86
2019-03-20T13:27:50.690Z,99028.75
2019-03-20T13:30:20.353Z,99034.49
2019-03-20T13:32:46.552Z,99029.75
2019-03-20T13:35:13.681Z,99028.75
2019-03-20T13:37:40.824Z,99030.36
2019-03-20T13:40:14.420Z,99032.17
2019-03-20T13:42:36.586Z,99038.73
2019-03-20T13:45:03.579Z,99032.68
2019-03-20T13:47:30.593Z,99030.86
2019-03-20T13:49:57.691Z,99027.44
2019-03-20T13:52:24.951Z,99023.81
2019-03-20T13:54:52.029Z,99020.39
2019-03-20T13:57:19.059Z,99052.62
2019-03-20T13:59:46.290Z,99020.39
2019-03-20T14:02:13.637Z,99008.30
2019-03-20T14:04:40.696Z,99014.34
2019-03-20T14:07:07.839Z,99015.95
2019-03-20T14:09:35.094Z,99018.06
2019-03-20T14:12:02.067Z,99016.77
2019-03-20T14:14:29.039Z,99007.80
2019-03-20T14:16:56.287Z,99009.91
2019-03-20T14:19:23.352Z,99004.67
2019-03-20T14:21:50.348Z,99006.48
2019-03-20T14:24:17.558Z,99012.02
2019-03-20T14:26:44.764Z,99005.17
2019-03-20T14:29:11.824Z,99005.47
2019-03-20T14:31:38.928Z,99004.67
2019-03-20T14:34:06.195Z,98998.92
2019-03-20T14:36:33.292Z,98995.20
2019-03-20T14:39:00.280Z,98995.20
2019-03-20T14:41:27.485Z,98993.89
2019-03-20T14:43:54.582Z,98994.19
2019-03-20T14:46:21.790Z,98996.30
2019-03-20T14:48:48.791Z,98990.56
2019-03-20T14:51:15.853Z,98988.95
2019-03-20T14:53:43.058Z,98990.26
2019-03-20T14:56:10.270Z,98987.34
2019-03-20T14:58:37.257Z,98981.90
2019-03-20T15:01:04.453Z,98981.09
2019-03-20T15:03:31.663Z,98985.33
2019-03-20T15:05:58.757Z,98984.82
2019-03-20T15:08:25.819Z,98979.08
2019-03-20T15:10:53.061Z,98977.06
2019-03-20T15:13:20.207Z,98976.76
2019-03-20T15:15:47.215Z,98972.83
2019-03-20T15:18:14.462Z,98979.68
2019-03-20T15:20:41.763Z,98975.14
2019-03-20T15:23:08.853Z,98981.50
2019-03-20T15:25:35.969Z,98979.68
2019-03-20T15:28:03.333Z,98978.88
2019-03-20T15:30:30.352Z,98974.64
2019-03-20T15:32:57.356Z,98979.78
2019-03-20T15:35:24.389Z,98977.20
2019-03-20T15:37:51.330Z,98977.20
2019-03-20T15:40:18.318Z,98975.01
2019-03-20T15:42:45.412Z,98978.73
2019-03-20T15:45:12.459Z,98978.73
2019-03-20T15:47:39.507Z,98981.66
2019-03-20T15:50:06.557Z,98985.09
2019-03-20T15:52:33.579Z,98980.85
2019-03-20T15:55:00.619Z,98987.41
2019-03-20T15:57:27.701Z,98985.09
2019-03-20T15:59:54.747Z,98988.21
2019-03-20T16:02:21.794Z,98992.45
2019-03-20T16:04:48.841Z,98998.19
2019-03-20T16:07:15.891Z,98998.49
2019-03-20T16:09:43.041Z,98994.26
2019-03-20T16:12:10.088Z,98989.52
2019-03-20T16:14:37.144Z,98990.13
2019-03-20T16:17:04.188Z,98994.56
2019-03-20T16:19:31.137Z,98996.98
2019-03-20T16:21:58.195Z,99003.23
2019-03-20T16:24:25.251Z,99005.85
2019-03-20T16:26:52.376Z,99002.93
2019-03-20T16:29:19.422Z,99010.19
2019-03-20T16:31:46.471Z,99004.64
2019-03-20T16:34:13.518Z,99007.16
2019-03-20T16:36:40.538Z,98897.80
2019-03-20T16:39:07.530Z,99009.78
2019-03-20T16:41:34.527Z,99012.30
2019-03-20T16:44:01.609Z,99001.23
2019-03-20T16:46:28.759Z,99004.45
2019-03-20T16:48:55.810Z,99004.29
2019-03-20T16:51:22.956Z,99007.84
2019-03-20T16:53:50.006Z,99002.39
2019-03-20T16:56:17.052Z,99008.45
2019-03-20T16:58:44.100Z,99007.44
2019-03-20T17:01:11.151Z,99009.21
2019-03-20T17:03:38.299Z,99020.23
2019-03-20T17:06:05.447Z,99015.46
2019-03-20T17:08:32.597Z,99021.07
2019-03-20T17:10:59.753Z,99026.14
2019-03-20T17:13:27.001Z,99026.42
2019-03-20T17:15:54.254Z,99033.63
2019-03-20T17:18:21.304Z,99025.23
2019-03-20T17:20:48.553Z,99023.47
2019-03-20T17:23:15.813Z,99024.48
2019-03-20T17:25:43.266Z,99027.11
2019-03-20T17:28:10.519Z,99033.44
2019-03-20T17:30:37.669Z,99035.27
2019-03-20T17:33:04.922Z,99033.00
2019-03-20T17:35:32.173Z,99037.77
2019-03-20T17:37:59.325Z,99034.53
2019-03-20T17:40:26.482Z,99036.32
2019-03-20T17:42:53.726Z,99032.27
2019-03-20T17:45:20.843Z,99028.54
2019-03-20T17:47:48.029Z,99030.97
2019-03-20T17:50:15.279Z,99041.19
2019-03-20T17:52:42.633Z,99050.63
2019-03-20T17:55:09.757Z,99045.25
2019-03-20T17:57:36.836Z,99047.20
2019-03-20T18:00:03.987Z,99038.94
2019-03-20T18:02:31.037Z,99036.33
2019-03-20T18:04:58.182Z,99036.48
2019-03-20T18:07:25.229Z,99045.27
2019-03-20T18:09:52.276Z,99048.00
2019-03-20T18:12:19.325Z,99049.66
2019-03-20T18:14:46.371Z,99044.62
2019-03-20T18:17:13.420Z,99035.40
2019-03-20T18:19:40.468Z,99045.88
2019-03-20T18:22:07.618Z,99055.52
2019-03-20T18:24:34.665Z,99056.25
2019-03-20T18:27:01.817Z,99061.57
2019-03-20T18:29:28.866Z,99063.13
2019-03-20T18:31:55.792Z,99058.66
2019-03-20T18:34:22.813Z,99053.91
2019-03-20T18:36:49.765Z,99065.91
2019-03-20T18:39:16.998Z,99063.73
2019-03-20T18:41:43.948Z,98953.53
2019-03-20T18:44:10.850Z,99069.58
2019-03-20T18:46:37.787Z,99073.13
2019-03-20T18:49:04.755Z,99066.72
2019-03-20T18:51:31.698Z,99074.19
2019-03-20T18:53:58.595Z,99069.11
2019-03-20T18:56:25.500Z,99067.62
2019-03-20T18:58:52.418Z,99075.58
2019-03-20T19:01:19.349Z,99072.59
2019-03-20T19:03:46.272Z,99077.14
2019-03-20T19:06:14.466Z,99079.06
2019-03-20T19:08:41.656Z,99086.75
2019-03-20T19:11:08.627Z,99082.83
2019-03-20T19:13:35.623Z,99078.53
2019-03-20T19:16:02.971Z,99089.61
2019-03-20T19:18:29.907Z,99093.16
2019-03-20T19:20:56.812Z,99086.13
2019-03-20T19:23:23.733Z,99091.66
2019-03-20T19:25:50.670Z,99099.31
2019-03-20T19:28:17.676Z,99096.05
2019-03-20T19:30:44.597Z,99104.50
2019-03-20T19:33:11.499Z,99110.84
2019-03-20T19:35:38.403Z,99118.00
2019-03-20T19:38:05.326Z,99116.59
2019-03-20T19:40:32.242Z,99108.62
2019-03-20T19:42:59.332Z,99110.23
2019-03-20T19:45:26.247Z,99120.50
2019-03-20T19:47:53.171Z,99114.67
2019-03-20T19:50:20.071Z,99116.10
2019-03-20T19:52:46.994Z,99119.13
2019-03-20T19:55:13.909Z,99120.67
2019-03-20T19:57:40.811Z,99121.72
2019-03-20T20:00:07.746Z,98966.72
2019-03-20T20:02:34.724Z,99122.00
2019-03-20T20:05:01.646Z,99122.33
2019-03-20T20:07:28.550Z,99131.88
2019-03-20T20:09:55.485Z,99129.72
2019-03-20T20:12:30.769Z,99132.73
2019-03-20T20:14:50.991Z,99132.66
2019-03-20T20:17:17.992Z,99132.59
2019-03-20T20:19:44.992Z,99131.41
2019-03-20T20:22:11.902Z,99132.55
2019-03-20T20:24:38.796Z,99137.41
2019-03-20T20:27:05.737Z,99135.91
2019-03-20T20:29:32.693Z,99137.02
2019-03-20T20:31:59.641Z,99144.49
2019-03-20T20:34:26.599Z,99149.88
2019-03-20T20:36:53.665Z,99156.56
2019-03-20T20:39:20.634Z,99152.77
2019-03-20T20:41:47.550Z,99147.34
2019-03-20T20:44:14.489Z,99149.77
2019-03-20T20:46:41.423Z,99150.88
2019-03-20T20:49:08.436Z,99152.80
2019-03-20T20:51:35.299Z,99155.73
2019-03-20T20:54:02.257Z,99151.45
2019-03-20T20:56:29.338Z,99154.69
2019-03-20T20:58:56.343Z,99148.77
2019-03-20T21:01:23.293Z,99140.41
2019-03-20T21:03:50.231Z,99142.84
2019-03-20T21:06:17.157Z,99145.57
2019-03-20T21:08:44.135Z,99141.95
2019-03-20T21:11:11.157Z,99140.48
2019-03-20T21:13:38.034Z,99144.34
2019-03-20T21:16:04.939Z,99140.72
2019-03-20T21:18:31.926Z,99144.95
2019-03-20T21:20:58.884Z,99145.88
2019-03-20T21:23:25.857Z,99148.80
2019-03-20T21:25:52.828Z,99146.49
2019-03-20T21:28:19.740Z,99150.88
2019-03-20T21:30:46.661Z,99147.75
2019-03-20T21:33:13.568Z,99147.06
2019-03-20T21:35:40.508Z,99144.75
2019-03-20T21:38:08.400Z,99152.02
2019-03-20T21:40:35.340Z,99151.83
2019-03-20T21:43:06.941Z,99157.71
2019-03-20T21:45:30.843Z,99158.33
2019-03-20T21:47:57.788Z,99159.25
2019-03-20T21:50:24.700Z,99147.47
2019-03-20T21:52:51.616Z,99151.31
2019-03-20T21:55:18.584Z,99149.31
2019-03-20T21:57:45.572Z,99142.30
2019-03-20T22:00:12.566Z,99149.45
2019-03-20T22:02:39.595Z,99141.71
2019-03-20T22:05:06.498Z,99144.94
2019-03-20T22:07:33.462Z,99141.13
2019-03-20T22:10:00.413Z,99142.55
2019-03-20T22:12:27.321Z,99143.19
2019-03-20T22:14:54.294Z,99144.00
2019-03-20T22:17:21.173Z,99143.80
2019-03-20T22:19:48.108Z,99149.66
2019-03-20T22:22:15.028Z,99149.06
2019-03-20T22:24:42.009Z,99150.57
2019-03-20T22:27:08.934Z,99154.28
2019-03-20T22:29:35.852Z,99152.77
2019-03-20T22:32:02.764Z,99149.16
2019-03-20T22:34:29.679Z,99154.70
2019-03-20T22:36:56.603Z,99161.86
2019-03-20T22:39:23.757Z,99167.52
2019-03-20T22:41:51.630Z,99156.33
2019-03-20T22:44:18.640Z,99160.91
2019-03-20T22:46:45.625Z,99162.63
2019-03-20T22:49:12.621Z,99163.33
2019-03-20T22:51:39.594Z,99168.17
2019-03-20T22:54:06.522Z,99168.17
2019-03-20T22:56:33.461Z,99168.20
2019-03-20T22:59:00.371Z,99167.69
2019-03-20T23:01:27.276Z,99164.77
2019-03-20T23:03:54.261Z,99162.34
2019-03-20T23:06:21.202Z,99160.34
2019-03-20T23:08:48.129Z,99155.73
2019-03-20T23:11:15.066Z,99160.78
2019-03-20T23:13:42.159Z,99153.92
2019-03-20T23:16:09.108Z,99154.53
2019-03-20T23:18:36.023Z,99154.03
2019-03-20T23:21:02.958Z,99159.08
2019-03-20T23:23:29.937Z,99158.88
2019-03-20T23:25:56.848Z,99149.70
2019-03-20T23:28:23.756Z,99154.94
2019-03-20T23:30:50.711Z,99154.44
2019-03-20T23:33:17.661Z,99161.30
2019-03-20T23:35:44.574Z,99165.14
2019-03-20T23:38:11.553Z,99158.42
2019-03-20T23:40:38.536Z,99160.84
2019-03-20T23:43:05.457Z,99159.84
2019-03-20T23:45:32.386Z,99161.45
2019-03-20T23:47:59.369Z,99154.39
2019-03-20T23:50:26.302Z,99155.50
2019-03-20T23:52:53.236Z,99153.69
2019-03-20T23:55:20.149Z,99154.80
2019-03-20T23:57:47.084Z,99147.85
